Tiempo atmosférico en la estación meteorológica de Bera, Navarra (78 m.)



Fecha
DESCASC
Temp. máxima en grados centígrados (hora)
DESCASC
Temp. mínima en grados centígrados (hora)
DESCASC
Temp. media en grados centígrados
DESCASC
Racha de viento máxima en m/sg (hora)
DESCASC
Velocidad máxima media en intervalos de 10 minutos(hora)
DESCASC
Precipitaciones diarias en mm
DESCASC
Precipitaciones de 00:00 a 06:00 en mm
DESCASC
Precipitaciones de 06:00 a 12:00 en mm
DESCASC
Precipitaciones de 12:00 a 18:00 en mm
DESCASC
Precipitaciones de 18:00 a 24:00 en mm
DESCASC
17-02-2019 22.4 (15:50) 8.5 (20:50) 15.4 10.83 (03:10) 4.44 (13:50) 0 0 0 0 0
16-02-2019 20.7 (16:20) 1.7 (07:10) 11.2 9.17 (23:50) 3.89 (13:50) 0 0 0 0 0
15-02-2019 21.1 (15:40) 3.8 (23:59) 12.5 8.89 (11:30) 3.89 (13:00) 0 0 0 0 0
14-02-2019 20.2 (16:10) 4 (00:00) 12.1 9.17 (15:00) 3.89 (10:40) 0 0 0 0 0
13-02-2019 18.7 (16:00) 0.8 (00:00) 9.8 6.11 (13:50) 2.5 (14:20) 0.2 0 0.2 0 0
12-02-2019 13.7 (15:40) 1.5 (00:00) 7.6 4.72 (15:40) 2.5 (16:00) 0 0 0 0 0
11-02-2019 13 (15:20) 5 (00:00) 9 10.83 (02:30) 3.06 (02:40) 7.6 2 2.6 3 0
10-02-2019 15.2 (11:10) 8.2 (00:00) 11.7 13.33 (11:30) 6.94 (11:20) 9.2 0 1.8 7.4 0
09-02-2019 18 (14:20) 2 (00:00) 10 9.72 (18:30) 3.33 (23:30) 0 0 0 0 0
08-02-2019 18.6 (15:30) 1.2 (00:00) 9.9 6.11 (16:00) 3.33 (15:40) 0 0 0 0 0
07-02-2019 12.3 (14:00) 3.5 (00:00) 7.9 7.78 (13:00) 3.33 (13:00) 0.2 0 0 0.2 0
06-02-2019 18.5 (15:00) 6.7 (00:00) 12.6 3.89 (15:50) 1.94 (15:50) 0.4 0.2 0.2 0 0
05-02-2019 12.2 (13:50) 7.6 (00:00) 9.9 2.5 (16:20) 1.11 (16:20) 13.8 4.6 1 1.4 6.8
04-02-2019 10.4 (15:40) 1 (00:00) 5.7 2.22 (08:00) 1.11 (07:00) 1 0 0 0.4 0.6
03-02-2019 9.1 (15:20) 0.8 (00:00) 5 9.17 (00:30) 2.5 (00:30) 18.6 4.2 7.2 4.6 2.6
02-02-2019 9.5 (15:30) 2.2 (00:00) 5.9 16.11 (07:40) 7.78 (13:00) 30.4 12.4 11.4 0.8 5.8
01-02-2019 13.7 (15:10) 5 (00:00) 9.3 11.11 (09:20) 6.11 (11:00) 9 2.8 0 1.8 4.4
31-01-2019 14.3 (15:20) 7.5 (00:00) 10.9 9.44 (19:10) 5 (19:10) 43.4 3.2 13 0.6 26.6
30-01-2019 11.1 (16:40) 5 (00:00) 8.1 12.78 (00:50) 5 (02:50) 11.2 1 9.6 0.6 0
29-01-2019 11.6 (15:50) 5.9 (00:00) 8.8 19.17 (16:50) 7.22 (16:50) 19.2 4.6 2.2 6.4 6
28-01-2019 11.2 (12:00) 6.4 (00:00) 8.8 18.89 (08:00) 6.94 (14:10) 30.4 10.2 10.2 7.4 2.6
27-01-2019 9.6 (06:10) 3.8 (00:00) 6.7 17.78 (05:40) 6.39 (06:00) 39.8 3.4 11.4 15.4 9.6
26-01-2019 13.5 (16:30) 4.3 (00:00) 8.9 2.22 (00:40) 1.11 (15:30) 1.4 0.2 1.2 0 0
25-01-2019 11.1 (15:40) 4.7 (00:00) 7.9 8.89 (17:50) 4.17 (16:00) 34.8 1 18.4 10.2 5.2
24-01-2019 7.8 (02:40) 4 (00:00) 5.9 8.89 (01:40) 3.06 (01:40) 3.4 2.4 0 0 1
23-01-2019 11 (07:50) 5.3 (00:00) 8.2 18.61 (07:50) 8.61 (07:50) 53.8 19 17 9.2 8.6
22-01-2019 7.2 (12:20) 3.2 (00:00) 5.2 8.61 (12:30) 3.33 (12:30) 38.8 0 3.6 22.6 12.6
21-01-2019 7.9 (15:20) 4.6 (00:00) 6.3 3.61 (16:00) 1.67 (15:50) 5.6 3.2 2.4 0 0
20-01-2019 11.6 (14:50) 6.4 (00:00) 9 10.83 (15:10) 3.89 (15:10) 11.2 0.4 3.2 2.6 5
19-01-2019 10.9 (15:30) 3.9 (00:00) 7.4 8.33 (20:20) 3.06 (20:10) 2.4 2 0.4 0 0

Gráficas

Temp. máximas Temp. mínimas Temp. medias Precipitaciones Rachas de viento máximas Velocidades máximas media en intervalos de 10 minutos

Datos horarios

Fecha y hora oficial Temperatura (ºC) Velocidad del viento (km/h) Dirección del viento Racha (km/h) Dirección de racha Precipitación (mm) Presión (hPa) Tendencia (hPa) Humedad (%)
2019-02-17 23:00:00 13.8 2 Noroeste 24 Este 0 -- -- 33
2019-02-17 22:00:00 11.7 5 Este 15 Este 0 -- -- 40
2019-02-17 21:00:00 8.9 4 Nordeste 12 Sudeste 0 -- -- 50
2019-02-17 20:00:00 9.7 2 Sudeste 8 Sur 0 -- -- 49
2019-02-17 19:00:00 14.7 3 Este 32 Este 0 -- -- 36
2019-02-17 18:00:00 19.4 7 Sur 23 Este 0 -- -- 19
2019-02-17 17:00:00 21.9 5 Sudoeste 24 Sur 0 -- -- 21
2019-02-17 16:00:00 22.3 8 Sudoeste 19 Sudoeste 0 -- -- 19
2019-02-17 15:00:00 21.9 7 Sudoeste 33 Sudoeste 0 -- -- 20
2019-02-17 14:00:00 21.2 11 Sur 36 Sur 0 -- -- 18
2019-02-17 13:00:00 21 12 Sur 38 Sur 0 -- -- 16
2019-02-17 12:00:00 20.1 9 Sudoeste 31 Este 0 -- -- 19
2019-02-17 11:00:00 18.7 7 Sudeste 25 Sur 0 -- -- 16
2019-02-17 10:00:00 16.7 6 Sur 24 Sudeste 0 -- -- 19
2019-02-17 09:00:00 14.2 5 Noroeste 18 Este 0 -- -- 24
2019-02-17 08:00:00 14.9 5 Este 22 Sudoeste 0 -- -- 19
2019-02-17 07:00:00 11.8 3 Nordeste 21 Sur 0 -- -- 29
2019-02-17 06:00:00 15.2 5 Sur 20 Sudoeste 0 -- -- 19
2019-02-17 05:00:00 15 6 Este 29 Sur 0 -- -- 21
2019-02-17 04:00:00 16.2 8 Sudoeste 39 Sudoeste 0 -- -- 22
2019-02-17 03:00:00 16.3 10 Sudoeste 37 Oeste 0 -- -- 21
2019-02-17 02:00:00 15.9 7 Sudoeste 34 Oeste 0 -- -- 24
2019-02-17 01:00:00 15.3 10 Sudoeste 27 Sudoeste 0 -- -- 24
2019-02-17 00:00:00 15.5 7 Oeste 33 Sudoeste 0 -- -- 29
2019-02-16 23:00:00 14.8 5 Sudoeste 25 Sudoeste 0 -- -- 21
2019-02-16 22:00:00 14.2 8 Sudoeste 19 Sudoeste 0 -- -- 27
2019-02-16 21:00:00 12.3 4 Sudoeste 14 Sudoeste 0 -- -- 35
2019-02-16 20:00:00 15.3 7 Sudoeste 28 Sudoeste 0 -- -- 27
2019-02-16 19:00:00 16.4 6 Sudoeste 17 Sudoeste 0 -- -- 29
2019-02-16 18:00:00 18.5 5 Sur 19 Sudoeste 0 -- -- 33
2019-02-16 17:00:00 20.5 8 Sur 26 Sur 0 -- -- 26
2019-02-16 16:00:00 20.4 13 Sur 27 Sur 0 -- -- 31
2019-02-16 15:00:00 20.1 10 Sudeste 31 Sudeste 0 -- -- 31
2019-02-16 14:00:00 19.1 13 Sudoeste 29 Sur 0 -- -- 33
2019-02-16 13:00:00 18 12 Sur 27 Sudoeste 0 -- -- 39
2019-02-16 12:00:00 17.8 8 Sur 30 Sudeste 0 -- -- 35
2019-02-16 11:00:00 15.6 10 Sur 25 Sur 0 -- -- 40
2019-02-16 10:00:00 10.3 7 Sur 20 Sur 0 -- -- 54
2019-02-16 09:00:00 3 2 Nordeste 6 Nordeste 0 -- -- 89
2019-02-16 08:00:00 1.9 0 Calma 5 Sudoeste 0 -- -- 91
2019-02-16 07:00:00 1.8 0 Calma 6 Este 0 -- -- 92
2019-02-16 06:00:00 2.3 0 Calma 4 Sudeste 0 -- -- 91
2019-02-16 05:00:00 2.3 0 Calma 5 Sudoeste 0 -- -- 90
2019-02-16 04:00:00 2.5 0 Calma 5 Sudeste 0 -- -- 91
2019-02-16 03:00:00 2.7 0 Calma 6 Sudeste 0 -- -- 90
2019-02-16 02:00:00 2.8 0 Calma 8 Oeste 0 -- -- 88
2019-02-16 01:00:00 3.6 0 Calma 7 Sur 0 -- -- 86
2019-02-16 00:00:00 3.8 0 Calma 5 Sudeste 0 -- -- 85
2019-02-15 23:00:00 4.3 0 Calma 4 Sudeste 0 -- -- 83
2019-02-15 22:00:00 5.3 0 Calma 6 Sur 0 -- -- 78
2019-02-15 21:00:00 6.2 0 Calma 5 Sudeste 0 -- -- 74
2019-02-15 20:00:00 8.3 2 Sudeste 6 Sudeste 0 -- -- 65
2019-02-15 19:00:00 11.5 0 Calma 10 Sudeste 0 -- -- 54
2019-02-15 18:00:00 18.5 5 Sudeste 19 Sur 0 -- -- 30
2019-02-15 17:00:00 20.5 9 Sudeste 22 Sudeste 0 -- -- 22
2019-02-15 16:00:00 21 8 Sudeste 27 Este 0 -- -- 20
2019-02-15 15:00:00 20.6 7 Sudeste 29 Sur 0 -- -- 20
2019-02-15 14:00:00 19.9 10 Sur 26 Sur 0 -- -- 22
2019-02-15 13:00:00 18.9 14 Sur 28 Sur 0 -- -- 22
2019-02-15 12:00:00 18.2 9 Sur 32 Sur 0 -- -- 21
2019-02-15 11:00:00 16.7 8 Sudoeste 25 Sudoeste 0 -- -- 27
2019-02-15 10:00:00 13.7 5 Este 18 Noroeste 0 -- -- 26
2019-02-15 09:00:00 7.4 3 Norte 9 Norte 0 -- -- 51
2019-02-15 08:00:00 7.2 4 Noroeste 12 Noroeste 0 -- -- 53
2019-02-15 07:00:00 8.3 3 Noroeste 10 Noroeste 0 -- -- 47
2019-02-15 06:00:00 9 3 Norte 15 Norte 0 -- -- 44
2019-02-15 05:00:00 8.7 2 Norte 14 Este 0 -- -- 48
2019-02-15 04:00:00 8.7 4 Norte 18 Sur 0 -- -- 48
2019-02-15 03:00:00 9.5 5 Noroeste 16 Sudoeste 0 -- -- 37
2019-02-15 02:00:00 10.8 3 Oeste 23 Sur 0 -- -- 40
2019-02-15 01:00:00 10.8 3 Este 20 Sur 0 -- -- 41
2019-02-15 00:00:00 11 5 Sudeste 22 Sudoeste 0 -- -- 36
2019-02-14 23:00:00 11.3 5 Sur 20 Sudeste 0 -- -- 39
2019-02-14 22:00:00 11.8 7 Sudeste 16 Sur 0 -- -- 38
2019-02-14 21:00:00 8.8 0 Calma 9 Sur 0 -- -- 58
2019-02-14 20:00:00 12.5 5 Sur 19 Este 0 -- -- 39
2019-02-14 19:00:00 13.2 4 Sur 22 Sudeste 0 -- -- 46
2019-02-14 18:00:00 16.4 6 Sudoeste 18 Sur 0 -- -- 39
2019-02-14 17:00:00 19.5 8 Sudoeste 23 Sudoeste 0 -- -- 28
2019-02-14 16:00:00 20.1 9 Sudoeste 27 Sudoeste 0 -- -- 27
2019-02-14 15:00:00 19.3 12 Sur 33 Sur 0 -- -- 30
2019-02-14 14:00:00 18.3 11 Sur 28 Sur 0 -- -- 34
2019-02-14 13:00:00 17.5 14 Sur 28 Sudeste 0 -- -- 37
2019-02-14 12:00:00 16.5 10 Sur 29 Sudoeste 0 -- -- 35
2019-02-14 11:00:00 15 13 Sur 31 Sur 0 -- -- 41
2019-02-14 10:00:00 13.2 8 Sur 25 Sur 0 -- -- 46
2019-02-14 09:00:00 12.3 10 Sur 23 Sudoeste 0 -- -- 49
2019-02-14 08:00:00 12.5 9 Sur 20 Este 0 -- -- 48
2019-02-14 07:00:00 12.3 8 Sur 18 Sur 0 -- -- 46
2019-02-14 06:00:00 9.8 7 Sur 18 Sur 0 -- -- 54
2019-02-14 05:00:00 8.2 3 Noroeste 15 Sur 0 -- -- 63
2019-02-14 04:00:00 6.9 0 Calma 8 Sudoeste 0 -- -- 74
2019-02-14 03:00:00 7.7 2 Oeste 10 Este 0 -- -- 73
2019-02-14 02:00:00 7 2 Noroeste 14 Sur 0 -- -- 79
2019-02-14 01:00:00 5.4 2 Noroeste 9 Sur 0 -- -- 90
2019-02-14 00:00:00 4 0 Calma 7 Este 0 -- -- 94
2019-02-13 23:00:00 4.3 0 Calma 6 Norte 0 -- -- 93
2019-02-13 22:00:00 4.8 2 Este 6 Sudeste 0 -- -- 91
2019-02-13 21:00:00 5.9 2 Este 5 Este 0 -- -- 88
2019-02-13 20:00:00 7.4 0 Calma 6 Sur 0 -- -- 82
2019-02-13 19:00:00 10.9 2 Sudeste 13 Este 0 -- -- 70
2019-02-13 18:00:00 15.2 6 Sudeste 17 Sur 0 -- -- 56
2019-02-13 17:00:00 18.5 4 Sudeste 20 Sudeste 0 -- -- 38
2019-02-13 16:00:00 18.7 7 Sudeste 21 Este 0 -- -- 39
2019-02-13 15:00:00 18.4 8 Sudeste 22 Este 0 -- -- 39
2019-02-13 14:00:00 17 7 Sudeste 22 Este 0 -- -- 43
2019-02-13 13:00:00 11.8 0 Calma 5 Oeste 0 -- -- 74
2019-02-13 12:00:00 6.5 0 Calma 4 Nordeste 0 -- -- 96
2019-02-13 11:00:00 2.8 0 Calma 3 Noroeste 0 -- -- 100
2019-02-13 10:00:00 1.7 0 Calma 4 Sudeste 0 -- -- 100
2019-02-13 09:00:00 1.2 2 Este 6 Este 0.2 -- -- 99
2019-02-13 08:00:00 1.1 0 Calma 4 Este 0 -- -- 99
2019-02-13 07:00:00 0.9 3 Sudeste 5 Sudeste 0 -- -- 99
2019-02-13 06:00:00 1.3 2 Este 3 Este 0 -- -- 99
2019-02-13 05:00:00 1.6 0 Calma 3 Sudeste 0 -- -- 98
2019-02-13 04:00:00 1.8 0 Calma 2 Sur 0 -- -- 98
2019-02-13 03:00:00 1.5 0 Calma 0 Calma 0 -- -- 98
2019-02-13 02:00:00 0.9 0 Calma 2 Este 0 -- -- 97
2019-02-13 01:00:00 1.1 0 Calma 3 Sudeste 0 -- -- 96
2019-02-13 00:00:00 1.5 0 Calma 2 Este 0 -- -- 96
2019-02-12 23:00:00 2.3 0 Calma 4 Este 0 -- -- 95
2019-02-12 22:00:00 3.3 0 Calma 3 Sudeste 0 -- -- 93
2019-02-12 21:00:00 4.5 0 Calma 5 Este 0 -- -- 90
2019-02-12 20:00:00 6.2 0 Calma 6 Sudeste 0 -- -- 86
2019-02-12 19:00:00 8.5 2 Sudeste 9 Sudeste 0 -- -- 78
2019-02-12 18:00:00 12.3 5 Sudeste 16 Nordeste 0 -- -- 63
2019-02-12 17:00:00 13.2 7 Nordeste 16 Nordeste 0 -- -- 57
2019-02-12 16:00:00 13.4 9 Nordeste 17 Este 0 -- -- 57
2019-02-12 15:00:00 13.5 7 Este 16 Nordeste 0 -- -- 61
2019-02-12 14:00:00 12.4 0 Calma 5 Sudoeste 0 -- -- 66
2019-02-12 13:00:00 8.3 2 Sur 5 Sur 0 -- -- 96
2019-02-12 12:00:00 5.2 0 Calma 4 Este 0 -- -- 99
2019-02-12 11:00:00 4.4 2 Nordeste 5 Nordeste 0 -- -- 99
2019-02-12 10:00:00 4 3 Este 4 Este 0 -- -- 99
2019-02-12 09:00:00 3.9 0 Calma 5 Nordeste 0 -- -- 99
2019-02-12 08:00:00 3.9 0 Calma 8 Sudoeste 0 -- -- 99
2019-02-12 07:00:00 4.5 2 Sur 5 Sudoeste 0 -- -- 99
2019-02-12 06:00:00 4.7 0 Calma 8 Sudoeste 0 -- -- 99
2019-02-12 05:00:00 5 0 Calma 3 Nordeste 0 -- -- 98
2019-02-12 04:00:00 4.8 0 Calma 3 Sudeste 0 -- -- 98
2019-02-12 03:00:00 4.5 0 Calma 4 Este 0 -- -- 96
2019-02-12 02:00:00 5.9 0 Calma 0 Calma 0 -- -- 97
2019-02-12 01:00:00 5.7 0 Calma 2 Este 0 -- -- 98
2019-02-12 00:00:00 5.2 0 Calma 2 Nordeste 0 -- -- 97
2019-02-11 23:00:00 5 0 Calma 4 Sudeste 0 -- -- 96
2019-02-11 22:00:00 5.8 2 Sudeste 5 Sudeste 0 -- -- 93
2019-02-11 21:00:00 6.7 0 Calma 3 Sudeste 0 -- -- 93
2019-02-11 20:00:00 7.5 0 Calma 4 Este 0 -- -- 90
2019-02-11 19:00:00 8.8 0 Calma 5 Sudoeste 0 -- -- 88
2019-02-11 18:00:00 10.2 2 Sudoeste 12 Norte 0 -- -- 80
2019-02-11 17:00:00 11.3 5 Norte 15 Noroeste 0 -- -- 74
2019-02-11 16:00:00 11.1 5 Norte 22 Oeste 1.4 -- -- 78
2019-02-11 15:00:00 12 8 Oeste 15 Sudoeste 0 -- -- 77
2019-02-11 14:00:00 10.5 5 Noroeste 17 Noroeste 0.6 -- -- 79
2019-02-11 13:00:00 10.4 0 Calma 16 Noroeste 1 -- -- 85
2019-02-11 12:00:00 10.7 6 Oeste 17 Oeste 0 -- -- 81
2019-02-11 11:00:00 9.7 7 Oeste 12 Oeste 0 -- -- 86
2019-02-11 10:00:00 8.1 7 Oeste 15 Oeste 1 -- -- 94
2019-02-11 09:00:00 7 4 Sudoeste 9 Sudoeste 0.2 -- -- 95
2019-02-11 08:00:00 8 4 Oeste 15 Oeste 1.4 -- -- 88
2019-02-11 07:00:00 8.1 0 Calma 7 Oeste 0 -- -- 88
2019-02-11 06:00:00 8.4 3 Oeste 11 Oeste 0 -- -- 89
2019-02-11 05:00:00 8.4 6 Oeste 19 Noroeste 0 -- -- 89
2019-02-11 04:00:00 7.8 3 Oeste 11 Oeste 0.2 -- -- 92
2019-02-11 03:00:00 8.4 4 Oeste 39 Norte 0.4 -- -- 84
2019-02-11 02:00:00 8.4 3 Sudeste 16 Oeste 1.4 -- -- 85
2019-02-11 01:00:00 8.7 3 Sudeste 12 Sudoeste 0 -- -- 85
2019-02-11 00:00:00 8.4 0 Calma 9 Sur 0 -- -- 84
2019-02-10 23:00:00 8.2 3 Sudeste 6 Noroeste 0 -- -- 88
2019-02-10 22:00:00 9.1 0 Calma 17 Sudoeste 0 -- -- 82
2019-02-10 21:00:00 9.4 2 Sur 17 Noroeste 0 -- -- 80
2019-02-10 20:00:00 9.8 6 Noroeste 19 Noroeste 0 -- -- 77
2019-02-10 19:00:00 9.2 0 Calma 14 Oeste 0 -- -- 90
2019-02-10 18:00:00 9.8 3 Sudoeste 10 Sudoeste 0 -- -- 89
2019-02-10 17:00:00 9.8 4 Sur 23 Noroeste 1.8 -- -- 89
2019-02-10 16:00:00 10 4 Sudoeste 31 Oeste 1.2 -- -- 86
2019-02-10 15:00:00 10.4 8 Oeste 26 Oeste 1.2 -- -- 86
2019-02-10 14:00:00 10.5 7 Oeste 35 Noroeste 2 -- -- 89
2019-02-10 13:00:00 10.5 7 Oeste 30 Oeste 1.2 -- -- 88
2019-02-10 12:00:00 10.5 15 Noroeste 48 Oeste 1.2 -- -- 87
2019-02-10 11:00:00 15 13 Sudoeste 30 Sudoeste 0 -- -- 62
2019-02-10 10:00:00 13 8 Sudeste 28 Sur 0.2 -- -- 69
2019-02-10 09:00:00 12 12 Sudeste 31 Sur 0.4 -- -- 72
2019-02-10 08:00:00 13.9 14 Sudeste 40 Sudoeste 0 -- -- 61
2019-02-10 07:00:00 14.3 12 Sudeste 28 Sur 0 -- -- 52
2019-02-10 06:00:00 13.6 10 Sur 29 Sudeste 0 -- -- 54
2019-02-10 05:00:00 14 11 Sudeste 30 Sudeste 0 -- -- 52
2019-02-10 04:00:00 13.7 13 Sudeste 35 Sur 0 -- -- 55
2019-02-10 03:00:00 13.8 13 Sur 34 Sudoeste 0 -- -- 56
2019-02-10 02:00:00 14.4 16 Sudoeste 36 Sudoeste 0 -- -- 56
2019-02-10 01:00:00 14.4 10 Sudoeste 28 Sudoeste 0 -- -- 55
2019-02-10 00:00:00 15.1 5 Sur 28 Oeste 0 -- -- 52
2019-02-09 23:00:00 14.7 7 Oeste 21 Sudoeste 0 -- -- 55
2019-02-09 22:00:00 13.2 3 Oeste 12 Oeste 0 -- -- 64
2019-02-09 21:00:00 15.1 6 Sudoeste 21 Sudoeste 0 -- -- 54
2019-02-09 20:00:00 14.9 4 Sudoeste 22 Sudoeste 0 -- -- 56
2019-02-09 19:00:00 15.5 5 Sudeste 35 Sudeste 0 -- -- 55
2019-02-09 18:00:00 15.9 6 Sudeste 18 Sudoeste 0 -- -- 53
2019-02-09 17:00:00 17.1 6 Sudeste 23 Sudeste 0 -- -- 48
2019-02-09 16:00:00 17.7 6 Sudeste 22 Sudeste 0 -- -- 49
2019-02-09 15:00:00 17.6 7 Sudeste 24 Sur 0 -- -- 51
2019-02-09 14:00:00 17.5 9 Sur 19 Sur 0 -- -- 52
2019-02-09 13:00:00 16 7 Sudoeste 15 Sudoeste 0 -- -- 57
2019-02-09 12:00:00 11.4 0 Calma 2 Sur 0 -- -- 83
2019-02-09 11:00:00 7.1 0 Calma 2 Oeste 0 -- -- 100
2019-02-09 10:00:00 4.6 0 Calma 2 Oeste 0 -- -- 100
2019-02-09 09:00:00 2.3 0 Calma 3 Este 0 -- -- 99
2019-02-09 08:00:00 2.2 0 Calma 3 Sudeste 0 -- -- 99
2019-02-09 07:00:00 2.5 0 Calma 2 Sudeste 0 -- -- 98
2019-02-09 06:00:00 2.8 0 Calma 4 Sudeste 0 -- -- 98
2019-02-09 05:00:00 3.2 0 Calma 2 Sudeste 0 -- -- 97
2019-02-09 04:00:00 4 0 Calma 5 Sudeste 0 -- -- 98
2019-02-09 03:00:00 4.3 0 Calma 3 Sudeste 0 -- -- 98
2019-02-09 02:00:00 4.4 0 Calma 3 Sudeste 0 -- -- 98
2019-02-09 01:00:00 4.3 0 Calma 2 Sur 0 -- -- 97
2019-02-09 00:00:00 4.7 0 Calma 6 Este 0 -- -- 96
2019-02-08 23:00:00 5.5 0 Calma 4 Sur 0 -- -- 95
2019-02-08 22:00:00 6.1 0 Calma 4 Nordeste 0 -- -- 95
2019-02-08 21:00:00 6.5 0 Calma 4 Sudeste 0 -- -- 93
2019-02-08 20:00:00 7.8 2 Sudeste 10 Sudeste 0 -- -- 89
2019-02-08 19:00:00 9.5 2 Sudeste 9 Noroeste 0 -- -- 87
2019-02-08 18:00:00 11.9 2 Sudeste 17 Noroeste 0 -- -- 80
2019-02-08 17:00:00 14.4 5 Noroeste 21 Noroeste 0 -- -- 73
2019-02-08 16:00:00 16 11 Noroeste 22 Noroeste 0 -- -- 64
2019-02-08 15:00:00 17.8 5 Sudoeste 18 Sur 0 -- -- 48
2019-02-08 14:00:00 16.7 8 Sur 18 Sudoeste 0 -- -- 52
2019-02-08 13:00:00 14.8 7 Sur 21 Sudeste 0 -- -- 55
2019-02-08 12:00:00 12.5 5 Sudeste 17 Sudeste 0 -- -- 73
2019-02-08 11:00:00 6.1 0 Calma 3 Sur 0 -- -- 100
2019-02-08 10:00:00 2.5 0 Calma 2 Este 0 -- -- 100
2019-02-08 09:00:00 1.2 0 Calma 3 Sur 0 -- -- 100
2019-02-08 08:00:00 1.5 0 Calma 3 Sudoeste 0 -- -- 99
2019-02-08 07:00:00 2.3 0 Calma 2 Sudeste 0 -- -- 99
2019-02-08 06:00:00 2.7 0 Calma 2 Nordeste 0 -- -- 99
2019-02-08 05:00:00 2.9 0 Calma 0 Calma 0 -- -- 99
2019-02-08 04:00:00 2.9 0 Calma 2 Sudeste 0 -- -- 99
2019-02-08 03:00:00 3 0 Calma 3 Sudeste 0 -- -- 99
2019-02-08 02:00:00 2.8 0 Calma 4 Sudeste 0 -- -- 98
2019-02-08 01:00:00 3 0 Calma 3 Sudeste 0 -- -- 98
2019-02-08 00:00:00 3.5 0 Calma 3 Sudeste 0 -- -- 96
2019-02-07 23:00:00 4.3 0 Calma 4 Sudeste 0 -- -- 95
2019-02-07 22:00:00 5.4 0 Calma 4 Sudeste 0 -- -- 94
2019-02-07 21:00:00 6.8 0 Calma 4 Sur 0 -- -- 91
2019-02-07 20:00:00 8.3 2 Sudeste 4 Sudeste 0 -- -- 89
2019-02-07 19:00:00 9.8 3 Sudeste 6 Este 0 -- -- 87
2019-02-07 18:00:00 11.2 0 Calma 8 Oeste 0 -- -- 81
2019-02-07 17:00:00 11.7 3 Sudoeste 11 Oeste 0 -- -- 76
2019-02-07 16:00:00 11.7 5 Oeste 19 Oeste 0 -- -- 74
2019-02-07 15:00:00 12 5 Oeste 18 Oeste 0 -- -- 73
2019-02-07 14:00:00 12.3 7 Oeste 23 Oeste 0 -- -- 77
2019-02-07 13:00:00 11.7 12 Oeste 28 Oeste 0.2 -- -- 84
2019-02-07 12:00:00 10.7 4 Oeste 10 Noroeste 0 -- -- 94
2019-02-07 11:00:00 8.9 0 Calma 4 Sudeste 0 -- -- 100
2019-02-07 10:00:00 7.8 0 Calma 5 Este 0 -- -- 100
2019-02-07 09:00:00 7.4 0 Calma 3 Sur 0 -- -- 100
2019-02-07 08:00:00 6.8 0 Calma 4 Sudeste 0 -- -- 99
2019-02-07 07:00:00 6.9 0 Calma 2 Sur 0 -- -- 99
2019-02-07 06:00:00 6.8 0 Calma 2 Sudeste 0 -- -- 99
2019-02-07 05:00:00 6.6 0 Calma 4 Este 0 -- -- 99
2019-02-07 04:00:00 6.4 0 Calma 2 Este 0 -- -- 99
2019-02-07 03:00:00 6.6 0 Calma 3 Este 0 -- -- 99
2019-02-07 02:00:00 6.6 0 Calma 3 Este 0 -- -- 98
2019-02-07 01:00:00 7.3 0 Calma 3 Nordeste 0 -- -- 99
2019-02-07 00:00:00 6.9 0 Calma 5 Nordeste 0 -- -- 98
2019-02-06 23:00:00 6.9 0 Calma 3 Este 0 -- -- 97
2019-02-06 22:00:00 7.9 0 Calma 3 Sur 0 -- -- 96
2019-02-06 21:00:00 8.7 0 Calma 3 Este 0 -- -- 96
2019-02-06 20:00:00 9.6 0 Calma 7 Sudeste 0 -- -- 91
2019-02-06 19:00:00 11.6 2 Sudeste 6 Sudeste 0 -- -- 89
2019-02-06 18:00:00 15 3 Sudeste 7 Este 0 -- -- 82
2019-02-06 17:00:00 16.8 6 Sudeste 12 Este 0 -- -- 73
2019-02-06 16:00:00 17.4 6 Sudeste 14 Sudeste 0 -- -- 72
2019-02-06 15:00:00 18.5 3 Sur 4 Sur 0 -- -- 70
2019-02-06 14:00:00 16.3 0 Calma 7 Nordeste 0 -- -- 73
2019-02-06 13:00:00 14.7 3 Nordeste 6 Este 0 -- -- 77
2019-02-06 12:00:00 13.6 2 Nordeste 6 Este 0 -- -- 84
2019-02-06 11:00:00 11.3 0 Calma 3 Norte 0 -- -- 99
2019-02-06 10:00:00 10.3 0 Calma 3 Noroeste 0 -- -- 100
2019-02-06 09:00:00 9.8 0 Calma 2 Sudeste 0 -- -- 99
2019-02-06 08:00:00 9.8 0 Calma 3 Oeste 0 -- -- 99
2019-02-06 07:00:00 10 0 Calma 2 Nordeste 0.2 -- -- 99
2019-02-06 06:00:00 10.1 0 Calma 2 Noroeste 0 -- -- 99
2019-02-06 05:00:00 10.1 0 Calma 2 Norte 0 -- -- 99
2019-02-06 04:00:00 10.1 0 Calma 2 Nordeste 0 -- -- 99
2019-02-06 03:00:00 10.2 0 Calma 0 Calma 0 -- -- 99
2019-02-06 02:00:00 10.2 0 Calma 0 Calma 0 -- -- 99
2019-02-06 01:00:00 10.3 0 Calma 0 Calma 0.2 -- -- 99
2019-02-06 00:00:00 10.3 0 Calma 0 Calma 0.2 -- -- 98
2019-02-05 23:00:00 10.5 0 Calma 0 Calma 1 -- -- 98
2019-02-05 22:00:00 10.6 0 Calma 3 Sudeste 1.2 -- -- 98
2019-02-05 21:00:00 10.7 0 Calma 2 Sudeste 2.2 -- -- 98
2019-02-05 20:00:00 11 0 Calma 5 Sudeste 0.8 -- -- 98
2019-02-05 19:00:00 11.2 2 Sudeste 5 Sudeste 1.4 -- -- 97
2019-02-05 18:00:00 11.5 0 Calma 5 Este 0.8 -- -- 97
2019-02-05 17:00:00 11.7 3 Este 9 Sudeste 0.2 -- -- 96
2019-02-05 16:00:00 12 2 Este 5 Sur 0 -- -- 95
2019-02-05 15:00:00 12 3 Este 6 Sudeste 0.4 -- -- 95
2019-02-05 14:00:00 12.1 3 Este 5 Sudeste 0 -- -- 92
2019-02-05 13:00:00 11.6 0 Calma 4 Este 0 -- -- 99
2019-02-05 12:00:00 11 0 Calma 3 Oeste 0.2 -- -- 100
2019-02-05 11:00:00 10.1 0 Calma 4 Noroeste 0.2 -- -- 100
2019-02-05 10:00:00 9.4 0 Calma 2 Este 0.2 -- -- 99
2019-02-05 09:00:00 9.1 0 Calma 3 Oeste 0.2 -- -- 99
2019-02-05 08:00:00 9 0 Calma 5 Noroeste 0.2 -- -- 99
2019-02-05 07:00:00 8.8 0 Calma 4 Norte 0 -- -- 99
2019-02-05 06:00:00 8.5 0 Calma 6 Este 0 -- -- 99
2019-02-05 05:00:00 8.2 0 Calma 3 Noroeste 0.2 -- -- 99
2019-02-05 04:00:00 8 0 Calma 4 Este 0 -- -- 99
2019-02-05 03:00:00 7.9 0 Calma 6 Sur 1.6 -- -- 98
2019-02-05 02:00:00 7.8 0 Calma 3 Noroeste 2.6 -- -- 98
2019-02-05 01:00:00 7.7 0 Calma 3 Este 0.2 -- -- 98
2019-02-05 00:00:00 7.6 0 Calma 4 Sudeste 0 -- -- 97
2019-02-04 23:00:00 7.5 0 Calma 4 Sudeste 0 -- -- 97
2019-02-04 22:00:00 7.5 0 Calma 3 Sudoeste 0 -- -- 96
2019-02-04 21:00:00 7.5 0 Calma 3 Sudeste 0.2 -- -- 96
2019-02-04 20:00:00 7.6 0 Calma 3 Noroeste 0 -- -- 95
2019-02-04 19:00:00 7.9 2 Norte 4 Norte 0.4 -- -- 93
2019-02-04 18:00:00 8.8 0 Calma 3 Noroeste 0.4 -- -- 89
2019-02-04 17:00:00 9.9 0 Calma 5 Noroeste 0 -- -- 79
2019-02-04 16:00:00 10.3 0 Calma 3 Sudoeste 0 -- -- 67
2019-02-04 15:00:00 10 0 Calma 4 Oeste 0 -- -- 63
2019-02-04 14:00:00 8.9 0 Calma 5 Sudoeste 0 -- -- 61
2019-02-04 13:00:00 7.4 3 Oeste 5 Sudoeste 0 -- -- 76
2019-02-04 12:00:00 5.5 0 Calma 4 Sudoeste 0 -- -- 81
2019-02-04 11:00:00 3.1 0 Calma 5 Sur 0 -- -- 95
2019-02-04 10:00:00 1.7 3 Sudoeste 4 Sudoeste 0 -- -- 99
2019-02-04 09:00:00 1 0 Calma 4 Sudeste 0 -- -- 98
2019-02-04 08:00:00 1.5 3 Sudoeste 8 Sur 0 -- -- 99
2019-02-04 07:00:00 1.6 4 Nordeste 5 Nordeste 0 -- -- 99
2019-02-04 06:00:00 1.7 3 Nordeste 5 Nordeste 0 -- -- 99
2019-02-04 05:00:00 1.8 0 Calma 4 Este 0 -- -- 99
2019-02-04 04:00:00 2.1 0 Calma 6 Sur 0 -- -- 99
2019-02-04 03:00:00 2.3 2 Sudeste 4 Este 0 -- -- 98
2019-02-04 02:00:00 2.3 3 Este 5 Este 0 -- -- 98
2019-02-04 01:00:00 2.1 2 Sudeste 3 Sudeste 0 -- -- 97
2019-02-04 00:00:00 2.9 0 Calma 5 Sudeste 0 -- -- 96
2019-02-03 23:00:00 3.8 2 Nordeste 4 Norte 1.8 -- -- 97
2019-02-03 22:00:00 3.5 0 Calma 5 Sudeste 0.8 -- -- 96
2019-02-03 21:00:00 3 0 Calma 3 Sudeste 0 -- -- 94
2019-02-03 20:00:00 4 0 Calma 3 Sudeste 0 -- -- 92
2019-02-03 19:00:00 4.6 2 Este 6 Sudeste 0 -- -- 89
2019-02-03 18:00:00 5.9 3 Sudeste 14 Oeste 0 -- -- 83
2019-02-03 17:00:00 8.1 5 Noroeste 13 Oeste 0 -- -- 72
2019-02-03 16:00:00 8.6 6 Noroeste 17 Noroeste 0 -- -- 62
2019-02-03 15:00:00 9 3 Sudeste 9 Sudeste 0 -- -- 66
2019-02-03 14:00:00 8.3 3 Sudeste 6 Sudeste 2.4 -- -- 70
2019-02-03 13:00:00 6 0 Calma 8 Oeste 2.2 -- -- 79
2019-02-03 12:00:00 3.6 4 Oeste 9 Oeste 1.6 -- -- 99
2019-02-03 11:00:00 2.4 3 Este 9 Nordeste 1.2 -- -- 99
2019-02-03 10:00:00 1.3 0 Calma 7 Sur 1.6 -- -- 98
2019-02-03 09:00:00 0.9 0 Calma 6 Noroeste 0.4 -- -- 98
2019-02-03 08:00:00 1 4 Este 8 Este 0.2 -- -- 98
2019-02-03 07:00:00 1 3 Noroeste 9 Sudeste 2.2 -- -- 98
2019-02-03 06:00:00 1.3 0 Calma 7 Nordeste 0.4 -- -- 97
2019-02-03 05:00:00 1.6 3 Este 9 Sudeste 0.8 -- -- 98
2019-02-03 04:00:00 1.2 0 Calma 9 Nordeste 0.6 -- -- 97
2019-02-03 03:00:00 1.5 3 Oeste 9 Oeste 0.2 -- -- 97
2019-02-03 02:00:00 1.4 0 Calma 4 Sur 0.2 -- -- 94
2019-02-03 01:00:00 3.1 0 Calma 33 Noroeste 2 -- -- 88
2019-02-03 00:00:00 3.1 4 Nordeste 15 Sudeste 0.8 -- -- 91
2019-02-02 23:00:00 2.9 2 Nordeste 13 Este 1.6 -- -- 94
2019-02-02 22:00:00 3.3 5 Este 17 Este 1.4 -- -- 89
2019-02-02 21:00:00 5.7 5 Nordeste 26 Nordeste 0.6 -- -- 79
2019-02-02 20:00:00 5.8 9 Oeste 31 Noroeste 1.4 -- -- 84
2019-02-02 19:00:00 7.2 14 Noroeste 44 Nordeste 0 -- -- 71
2019-02-02 18:00:00 7 8 Oeste 45 Oeste 0.4 -- -- 68
2019-02-02 17:00:00 8.3 11 Noroeste 29 Norte 0 -- -- 64
2019-02-02 16:00:00 9.1 10 Norte 45 Noroeste 0 -- -- 53
2019-02-02 15:00:00 9.2 15 Noroeste 47 Oeste 0 -- -- 58
2019-02-02 14:00:00 9.3 21 Noroeste 48 Noroeste 0 -- -- 57
2019-02-02 13:00:00 8.5 28 Noroeste 50 Noroeste 0.4 -- -- 64
2019-02-02 12:00:00 6.4 10 Noroeste 46 Nordeste 1.8 -- -- 83
2019-02-02 11:00:00 6.3 18 Noroeste 49 Noroeste 1 -- -- 87
2019-02-02 10:00:00 6.2 7 Noroeste 56 Oeste 3.4 -- -- 88
2019-02-02 09:00:00 7.7 21 Noroeste 49 Oeste 1 -- -- 81
2019-02-02 08:00:00 7.6 14 Noroeste 58 Oeste 0.8 -- -- 85
2019-02-02 07:00:00 8 10 Noroeste 36 Nordeste 3.4 -- -- 86
2019-02-02 06:00:00 6.8 5 Oeste 21 Oeste 2.8 -- -- 94
2019-02-02 05:00:00 6.4 6 Oeste 29 Sudoeste 4 -- -- 93
2019-02-02 04:00:00 5.6 2 Sur 8 Sudoeste 0.8 -- -- 97
2019-02-02 03:00:00 5.8 0 Calma 5 Sudeste 1.6 -- -- 97
2019-02-02 02:00:00 5.7 2 Sudeste 9 Sur 2.4 -- -- 96
2019-02-02 01:00:00 5.6 0 Calma 7 Norte 0.8 -- -- 97
2019-02-02 00:00:00 5.5 0 Calma 9 Sudeste 0.8 -- -- 97
2019-02-01 23:00:00 5.3 0 Calma 5 Sudeste 1.6 -- -- 97
2019-02-01 22:00:00 5.1 0 Calma 4 Noroeste 0 -- -- 95
2019-02-01 21:00:00 5.2 2 Nordeste 7 Noroeste 0 -- -- 95
2019-02-01 20:00:00 5.4 0 Calma 12 Este 0 -- -- 91
2019-02-01 19:00:00 6 4 Sur 36 Oeste 2 -- -- 86
2019-02-01 18:00:00 7.8 3 Sudeste 7 Este 0 -- -- 84
2019-02-01 17:00:00 9.1 5 Oeste 40 Oeste 1.8 -- -- 85
2019-02-01 16:00:00 13 13 Oeste 24 Oeste 0 -- -- 51
2019-02-01 15:00:00 13.5 5 Sudoeste 19 Sur 0 -- -- 51
2019-02-01 14:00:00 13.2 6 Sudoeste 26 Oeste 0 -- -- 50
2019-02-01 13:00:00 12.6 9 Sudoeste 33 Oeste 0 -- -- 52
2019-02-01 12:00:00 13 13 Sur 38 Sur 0 -- -- 51
2019-02-01 11:00:00 12.3 22 Sudoeste 38 Sudoeste 0 -- -- 52
2019-02-01 10:00:00 11.4 18 Sudoeste 40 Sudoeste 0 -- -- 56
2019-02-01 09:00:00 6 3 Norte 10 Oeste 0 -- -- 100
2019-02-01 08:00:00 5.9 3 Noroeste 8 Sur 0 -- -- 99
2019-02-01 07:00:00 6.9 0 Calma 7 Este 0 -- -- 98
2019-02-01 06:00:00 7.9 3 Este 5 Este 0 -- -- 98
2019-02-01 05:00:00 8.7 2 Oeste 8 Sudoeste 0 -- -- 99
2019-02-01 04:00:00 8.7 0 Calma 5 Norte 0.6 -- -- 98
2019-02-01 03:00:00 9 3 Este 6 Sudeste 2 -- -- 98
2019-02-01 02:00:00 8.9 0 Calma 4 Este 0 -- -- 98
2019-02-01 01:00:00 9.2 0 Calma 4 Norte 0.2 -- -- 98
2019-02-01 00:00:00 9.4 2 Sudeste 10 Este 1.4 -- -- 98
2019-01-31 23:00:00 9.5 2 Este 6 Este 3.4 -- -- 97
2019-01-31 22:00:00 9.7 0 Calma 5 Sur 1.8 -- -- 96
2019-01-31 21:00:00 10.2 2 Sudeste 6 Este 4.6 -- -- 95
2019-01-31 20:00:00 10.7 2 Este 34 Oeste 5 -- -- 94
2019-01-31 19:00:00 11.8 12 Noroeste 33 Norte 10.4 -- -- 90
2019-01-31 18:00:00 12.6 4 Sudeste 25 Sur 0.4 -- -- 80
2019-01-31 17:00:00 13.8 8 Sudeste 20 Sudeste 0 -- -- 72
2019-01-31 16:00:00 14.2 3 Sudeste 19 Este 0 -- -- 72
2019-01-31 15:00:00 14.1 9 Sudeste 23 Sudeste 0 -- -- 72
2019-01-31 14:00:00 13.4 5 Sudeste 23 Sur 0 -- -- 76
2019-01-31 13:00:00 12 6 Sudeste 21 Sur 0.2 -- -- 82
2019-01-31 12:00:00 10.8 5 Sudeste 13 Sudeste 0 -- -- 83
2019-01-31 11:00:00 9.3 3 Noroeste 12 Sudeste 0.2 -- -- 91
2019-01-31 10:00:00 8.2 4 Norte 13 Nordeste 1.6 -- -- 94
2019-01-31 09:00:00 7.9 4 Norte 15 Nordeste 3.8 -- -- 94
2019-01-31 08:00:00 7.7 4 Nordeste 10 Nordeste 5.8 -- -- 93
2019-01-31 07:00:00 7.7 3 Este 10 Este 1.6 -- -- 90
2019-01-31 06:00:00 8 6 Sudeste 25 Sudeste 0.4 -- -- 83
2019-01-31 05:00:00 7.5 4 Sudeste 17 Sudoeste 1 -- -- 86
2019-01-31 04:00:00 7.7 6 Sudeste 22 Sur 0.8 -- -- 81
2019-01-31 03:00:00 7.6 7 Sur 27 Sur 0.4 -- -- 79
2019-01-31 02:00:00 7.7 10 Sur 26 Sur 0.2 -- -- 78
2019-01-31 01:00:00 7.6 2 Sur 22 Sur 0.4 -- -- 80
2019-01-31 00:00:00 7.7 4 Sudeste 20 Sur 0 -- -- 77
2019-01-30 23:00:00 8.6 4 Sudeste 27 Sur 0 -- -- 73
2019-01-30 22:00:00 9.4 8 Sudeste 23 Sudeste 0 -- -- 68
2019-01-30 21:00:00 8.2 5 Sudeste 13 Sudeste 0 -- -- 68
2019-01-30 20:00:00 6.2 0 Calma 6 Sudoeste 0 -- -- 88
2019-01-30 19:00:00 6.5 0 Calma 5 Sur 0 -- -- 87
2019-01-30 18:00:00 8.3 0 Calma 10 Sur 0 -- -- 77
2019-01-30 17:00:00 10.8 2 Sur 10 Sudoeste 0 -- -- 65
2019-01-30 16:00:00 10.6 5 Sudoeste 15 Sudoeste 0 -- -- 65
2019-01-30 15:00:00 9.8 2 Norte 6 Noroeste 0 -- -- 78
2019-01-30 14:00:00 8 4 Nordeste 8 Norte 0 -- -- 83
2019-01-30 13:00:00 6.6 5 Sur 16 Sur 0.6 -- -- 86
2019-01-30 12:00:00 6.1 3 Noroeste 17 Sur 0.6 -- -- 89
2019-01-30 11:00:00 5.5 7 Sur 17 Sudoeste 0.2 -- -- 87
2019-01-30 10:00:00 5.1 5 Sur 19 Noroeste 3.6 -- -- 93
2019-01-30 09:00:00 5.5 0 Calma 28 Oeste 3.4 -- -- 91
2019-01-30 08:00:00 6.3 10 Oeste 29 Oeste 0.4 -- -- 87
2019-01-30 07:00:00 6.3 10 Oeste 23 Sudoeste 1.4 -- -- 86
2019-01-30 06:00:00 6.9 6 Oeste 30 Sudoeste 0.8 -- -- 84
2019-01-30 05:00:00 8.1 7 Oeste 27 Oeste 0 -- -- 73
2019-01-30 04:00:00 8.2 13 Oeste 30 Oeste 0 -- -- 70
2019-01-30 03:00:00 8.7 11 Oeste 39 Oeste 0 -- -- 70
2019-01-30 02:00:00 8.5 10 Noroeste 34 Oeste 0.2 -- -- 67
2019-01-30 01:00:00 7.7 15 Oeste 46 Oeste 0 -- -- 73
2019-01-30 00:00:00 7.1 25 Noroeste 58 Noroeste 1 -- -- 80
2019-01-29 23:00:00 7.3 12 Oeste 52 Noroeste 0.6 -- -- 71
2019-01-29 22:00:00 8.8 22 Noroeste 59 Norte 0 -- -- 71
2019-01-29 21:00:00 9.4 20 Oeste 53 Oeste 1 -- -- 69
2019-01-29 20:00:00 9.3 15 Oeste 48 Oeste 0 -- -- 76
2019-01-29 19:00:00 8.5 11 Oeste 52 Oeste 3.4 -- -- 87
2019-01-29 18:00:00 9.6 26 Oeste 61 Oeste 1.8 -- -- 77
2019-01-29 17:00:00 11 21 Oeste 69 Oeste 1.4 -- -- 78
2019-01-29 16:00:00 11.3 19 Oeste 58 Sudoeste 0.6 -- -- 79
2019-01-29 15:00:00 9.6 5 Sudoeste 19 Sur 1.4 -- -- 87
2019-01-29 14:00:00 9.3 4 Sudoeste 14 Sur 1.2 -- -- 86
2019-01-29 13:00:00 9.5 3 Sudeste 14 Oeste 0 -- -- 79
2019-01-29 12:00:00 8.8 3 Norte 10 Sur 0.2 -- -- 87
2019-01-29 11:00:00 7.4 2 Sudeste 5 Este 0.6 -- -- 99
2019-01-29 10:00:00 7.1 0 Calma 5 Noroeste 0 -- -- 99
2019-01-29 09:00:00 6.9 0 Calma 7 Norte 0 -- -- 99
2019-01-29 08:00:00 6.7 2 Noroeste 4 Nordeste 0.6 -- -- 99
2019-01-29 07:00:00 6.6 0 Calma 4 Oeste 0.8 -- -- 99
2019-01-29 06:00:00 6.4 2 Norte 4 Noroeste 1 -- -- 98
2019-01-29 05:00:00 6.1 0 Calma 4 Noroeste 0.6 -- -- 98
2019-01-29 04:00:00 5.9 0 Calma 6 Sudeste 0 -- -- 97
2019-01-29 03:00:00 6 0 Calma 4 Noroeste 0 -- -- 95
2019-01-29 02:00:00 7.1 0 Calma 21 Noroeste 0 -- -- 91
2019-01-29 01:00:00 8.1 10 Noroeste 20 Noroeste 3 -- -- 85
2019-01-29 00:00:00 9.1 5 Noroeste 20 Noroeste 0 -- -- 82
2019-01-28 23:00:00 8.3 0 Calma 22 Noroeste 0 -- -- 85
2019-01-28 22:00:00 8.7 5 Noroeste 25 Noroeste 1.2 -- -- 85
2019-01-28 21:00:00 9.2 13 Norte 35 Oeste 1.2 -- -- 81
2019-01-28 20:00:00 9.3 12 Oeste 32 Oeste 0.2 -- -- 77
2019-01-28 19:00:00 9.7 6 Noroeste 38 Oeste 0 -- -- 78
2019-01-28 18:00:00 10.1 19 Oeste 51 Oeste 0.4 -- -- 81
2019-01-28 17:00:00 9.6 15 Oeste 41 Noroeste 1.4 -- -- 81
2019-01-28 16:00:00 9.4 14 Noroeste 58 Oeste 1.8 -- -- 85
2019-01-28 15:00:00 10 23 Oeste 59 Oeste 0.8 -- -- 80
2019-01-28 14:00:00 10.9 18 Oeste 63 Oeste 0 -- -- 77
2019-01-28 13:00:00 9.6 9 Noroeste 52 Oeste 3 -- -- 87
2019-01-28 12:00:00 11.2 17 Noroeste 53 Noroeste 0 -- -- 75
2019-01-28 11:00:00 10.6 19 Noroeste 56 Oeste 0.4 -- -- 77
2019-01-28 10:00:00 10.6 20 Noroeste 49 Noroeste 0 -- -- 69
2019-01-28 09:00:00 9.8 17 Oeste 52 Oeste 1.4 -- -- 85
2019-01-28 08:00:00 10.3 22 Noroeste 68 Noroeste 5.8 -- -- 89
2019-01-28 07:00:00 9.8 15 Oeste 50 Sudoeste 2.6 -- -- 90
2019-01-28 06:00:00 9.9 15 Oeste 56 Oeste 2 -- -- 92
2019-01-28 05:00:00 8.3 12 Oeste 41 Oeste 2.4 -- -- 94
2019-01-28 04:00:00 8 15 Oeste 30 Oeste 0.6 -- -- 92
2019-01-28 03:00:00 7.3 7 Oeste 24 Oeste 2.4 -- -- 95
2019-01-28 02:00:00 6.5 2 Norte 14 Oeste 1.4 -- -- 95
2019-01-28 01:00:00 6.5 5 Sudoeste 38 Oeste 1.4 -- -- 91
2019-01-28 00:00:00 6.9 2 Sudoeste 39 Noroeste 0.2 -- -- 93
2019-01-27 23:00:00 7.5 18 Noroeste 41 Oeste 4.2 -- -- 85
2019-01-27 22:00:00 7.5 9 Noroeste 26 Sudoeste 0 -- -- 88
2019-01-27 21:00:00 6.9 10 Oeste 40 Oeste 4.2 -- -- 88
2019-01-27 20:00:00 7.7 6 Noroeste 49 Oeste 0.6 -- -- 82
2019-01-27 19:00:00 8.7 17 Noroeste 42 Noroeste 0.4 -- -- 74
2019-01-27 18:00:00 7.9 12 Noroeste 42 Noroeste 0.4 -- -- 80
2019-01-27 17:00:00 8.5 18 Noroeste 44 Oeste 0 -- -- 72
2019-01-27 16:00:00 7 12 Oeste 39 Oeste 2.2 -- -- 88
2019-01-27 15:00:00 8 14 Noroeste 51 Norte 3.2 -- -- 80
2019-01-27 14:00:00 8.5 10 Oeste 49 Oeste 1 -- -- 87
2019-01-27 13:00:00 8.8 19 Noroeste 48 Noroeste 8.6 -- -- 82
2019-01-27 12:00:00 9.2 17 Noroeste 45 Sudoeste 2.6 -- -- 82
2019-01-27 11:00:00 8 17 Oeste 52 Oeste 1.8 -- -- 89
2019-01-27 10:00:00 7.6 12 Oeste 51 Oeste 3.2 -- -- 90
2019-01-27 09:00:00 8.7 17 Oeste 50 Sudoeste 1 -- -- 85
2019-01-27 08:00:00 8.9 16 Oeste 54 Oeste 0.2 -- -- 81
2019-01-27 07:00:00 8.5 21 Oeste 51 Oeste 2.6 -- -- 89
2019-01-27 06:00:00 9.5 23 Oeste 64 Oeste 1 -- -- 84
2019-01-27 05:00:00 9.4 9 Oeste 46 Oeste 2.2 -- -- 95
2019-01-27 04:00:00 5.7 4 Nordeste 14 Sur 0.2 -- -- 100
2019-01-27 03:00:00 4 0 Calma 4 Sudeste 0 -- -- 100
2019-01-27 02:00:00 4.2 2 Sudeste 5 Sudeste 0 -- -- 99
2019-01-27 01:00:00 5 0 Calma 6 Sudeste 0 -- -- 100
2019-01-27 00:00:00 5.1 0 Calma 4 Sudoeste 0 -- -- 99
2019-01-26 23:00:00 5.5 0 Calma 3 Nordeste 0 -- -- 99
2019-01-26 22:00:00 4.8 2 Nordeste 4 Nordeste 0 -- -- 99
2019-01-26 21:00:00 4.6 2 Sudeste 4 Sudeste 0 -- -- 96
2019-01-26 20:00:00 5.9 0 Calma 5 Sudeste 0 -- -- 94
2019-01-26 19:00:00 7.5 0 Calma 5 Este 0 -- -- 92
2019-01-26 18:00:00 10 2 Sudeste 6 Noroeste 0 -- -- 89
2019-01-26 17:00:00 12.3 0 Calma 5 Sur 0 -- -- 83
2019-01-26 16:00:00 13 0 Calma 8 Nordeste 0 -- -- 73
2019-01-26 15:00:00 12.6 0 Calma 4 Oeste 0 -- -- 80
2019-01-26 14:00:00 12.4 0 Calma 6 Oeste 0 -- -- 82
2019-01-26 13:00:00 11.3 2 Norte 5 Nordeste 0 -- -- 89
2019-01-26 12:00:00 10.5 0 Calma 2 Oeste 0 -- -- 99
2019-01-26 11:00:00 9.5 0 Calma 2 Sudeste 0.4 -- -- 100
2019-01-26 10:00:00 8.8 0 Calma 3 Este 0.6 -- -- 100
2019-01-26 09:00:00 8.4 2 Sudeste 4 Este 0.2 -- -- 100
2019-01-26 08:00:00 8.3 0 Calma 2 Sudeste 0 -- -- 100
2019-01-26 07:00:00 8.3 0 Calma 3 Noroeste 0 -- -- 100
2019-01-26 06:00:00 8.5 0 Calma 5 Este 0 -- -- 100
2019-01-26 05:00:00 8.3 0 Calma 2 Sur 0 -- -- 99
2019-01-26 04:00:00 8.2 0 Calma 3 Sudoeste 0.2 -- -- 99
2019-01-26 03:00:00 8.1 0 Calma 4 Nordeste 0 -- -- 98
2019-01-26 02:00:00 9.5 0 Calma 6 Sudoeste 0 -- -- 98
2019-01-26 01:00:00 9.8 3 Sudoeste 8 Noroeste 0 -- -- 98
2019-01-26 00:00:00 9.8 2 Sur 6 Sudoeste 0.2 -- -- 99
2019-01-25 23:00:00 9.9 3 Sudoeste 6 Sur 0.2 -- -- 98
2019-01-25 22:00:00 10 3 Sur 13 Oeste 1 -- -- 98
2019-01-25 21:00:00 10.1 2 Sudoeste 11 Oeste 1.4 -- -- 98
2019-01-25 20:00:00 10.3 7 Oeste 23 Oeste 0.6 -- -- 97
2019-01-25 19:00:00 10.3 8 Oeste 27 Oeste 1.8 -- -- 96
2019-01-25 18:00:00 10.6 10 Noroeste 32 Oeste 1 -- -- 96
2019-01-25 17:00:00 10.5 9 Oeste 28 Oeste 1.4 -- -- 96
2019-01-25 16:00:00 10.8 15 Oeste 32 Oeste 0.6 -- -- 93
2019-01-25 15:00:00 10.8 8 Noroeste 25 Oeste 2.4 -- -- 95
2019-01-25 14:00:00 10.7 5 Oeste 18 Sudoeste 3 -- -- 96
2019-01-25 13:00:00 10.8 12 Oeste 31 Noroeste 1.8 -- -- 96
2019-01-25 12:00:00 10.7 9 Noroeste 21 Noroeste 1.8 -- -- 96
2019-01-25 11:00:00 10.5 7 Noroeste 28 Oeste 1.8 -- -- 96
2019-01-25 10:00:00 10.3 6 Noroeste 30 Oeste 5.6 -- -- 97
2019-01-25 09:00:00 10.5 4 Noroeste 19 Norte 4.6 -- -- 96
2019-01-25 08:00:00 10.5 9 Noroeste 27 Noroeste 4 -- -- 95
2019-01-25 07:00:00 10.4 8 Noroeste 27 Oeste 0.6 -- -- 94
2019-01-25 06:00:00 9 8 Noroeste 20 Noroeste 0 -- -- 100
2019-01-25 05:00:00 4.9 0 Calma 3 Este 0.2 -- -- 98
2019-01-25 04:00:00 4.7 0 Calma 3 Noroeste 0.2 -- -- 98
2019-01-25 03:00:00 4.7 0 Calma 3 Noroeste 0.4 -- -- 98
2019-01-25 02:00:00 4.7 0 Calma 4 Sur 0.2 -- -- 96
2019-01-25 01:00:00 4.9 0 Calma 5 Nordeste 0 -- -- 95
2019-01-25 00:00:00 4.9 0 Calma 7 Sudoeste 0 -- -- 95
2019-01-24 23:00:00 5.2 0 Calma 5 Oeste 0.4 -- -- 96
2019-01-24 22:00:00 5.4 0 Calma 4 Nordeste 0.6 -- -- 96
2019-01-24 21:00:00 5.5 0 Calma 2 Sudeste 0 -- -- 94
2019-01-24 20:00:00 5.6 2 Norte 4 Norte 0 -- -- 93
2019-01-24 19:00:00 5.9 0 Calma 2 Este 0 -- -- 91
2019-01-24 18:00:00 6.5 0 Calma 0 Calma 0 -- -- 89
2019-01-24 17:00:00 6.7 0 Calma 3 Nordeste 0 -- -- 82
2019-01-24 16:00:00 6.9 0 Calma 4 Norte 0 -- -- 82
2019-01-24 15:00:00 6.5 0 Calma 5 Este 0 -- -- 84
2019-01-24 14:00:00 5.8 2 Nordeste 4 Nordeste 0 -- -- 84
2019-01-24 13:00:00 5.4 0 Calma 6 Sudoeste 0 -- -- 86
2019-01-24 12:00:00 5 0 Calma 4 Nordeste 0 -- -- 88
2019-01-24 11:00:00 4.5 0 Calma 5 Sudeste 0 -- -- 93
2019-01-24 10:00:00 4.3 0 Calma 4 Nordeste 0 -- -- 95
2019-01-24 09:00:00 4 0 Calma 4 Sur 0 -- -- 93
2019-01-24 08:00:00 4.4 0 Calma 2 Sur 0 -- -- 95
2019-01-24 07:00:00 4.7 0 Calma 4 Oeste 0 -- -- 94
2019-01-24 06:00:00 5.1 0 Calma 9 Este 0 -- -- 94
2019-01-24 05:00:00 5.3 2 Norte 11 Este 0.6 -- -- 91
2019-01-24 04:00:00 6.3 0 Calma 17 Nordeste 1 -- -- 90
2019-01-24 03:00:00 7.5 4 Este 23 Este 0 -- -- 80
2019-01-24 02:00:00 7.3 2 Sur 32 Nordeste 0.2 -- -- 88
2019-01-24 01:00:00 7.5 3 Norte 26 Oeste 0.6 -- -- 85
2019-01-24 00:00:00 7.3 7 Oeste 22 Oeste 0.4 -- -- 89
2019-01-23 23:00:00 7 8 Noroeste 40 Noroeste 2.6 -- -- 91
2019-01-23 22:00:00 7.7 8 Noroeste 33 Noroeste 1 -- -- 90
2019-01-23 21:00:00 7.7 4 Noroeste 31 Oeste 1.4 -- -- 92
2019-01-23 20:00:00 8.2 13 Noroeste 44 Noroeste 2.2 -- -- 90
2019-01-23 19:00:00 7.9 4 Oeste 35 Noroeste 1 -- -- 91
2019-01-23 18:00:00 8.1 10 Noroeste 42 Oeste 0.6 -- -- 90
2019-01-23 17:00:00 8.2 14 Noroeste 37 Oeste 3.2 -- -- 91
2019-01-23 16:00:00 8.6 10 Norte 31 Noroeste 2.4 -- -- 90
2019-01-23 15:00:00 8.9 9 Noroeste 30 Oeste 0 -- -- 85
2019-01-23 14:00:00 8.7 11 Oeste 33 Noroeste 0.8 -- -- 90
2019-01-23 13:00:00 8.5 11 Noroeste 43 Oeste 2.2 -- -- 90
2019-01-23 12:00:00 9.2 11 Norte 45 Noroeste 1 -- -- 88
2019-01-23 11:00:00 9.4 13 Noroeste 39 Noroeste 1.2 -- -- 89
2019-01-23 10:00:00 9.1 7 Oeste 38 Oeste 4 -- -- 94
2019-01-23 09:00:00 9.3 9 Oeste 31 Noroeste 2.8 -- -- 94
2019-01-23 08:00:00 10.8 25 Noroeste 67 Oeste 6.4 -- -- 90
2019-01-23 07:00:00 10.9 20 Oeste 46 Oeste 1.6 -- -- 92
2019-01-23 06:00:00 8.6 12 Oeste 36 Oeste 3 -- -- 97
2019-01-23 05:00:00 8.4 2 Nordeste 15 Noroeste 2.8 -- -- 97
2019-01-23 04:00:00 8.5 6 Oeste 22 Sudoeste 1.8 -- -- 96
2019-01-23 03:00:00 7.8 4 Oeste 31 Oeste 6.2 -- -- 98
2019-01-23 02:00:00 7.3 3 Sudoeste 13 Oeste 3.8 -- -- 99
2019-01-23 01:00:00 5.9 4 Sudeste 8 Sur 1.4 -- -- 99
2019-01-23 00:00:00 5.3 0 Calma 6 Nordeste 1.6 -- -- 98
2019-01-22 23:00:00 5.3 3 Norte 18 Sudoeste 1.2 -- -- 95
2019-01-22 22:00:00 5.8 7 Sudoeste 22 Oeste 2 -- -- 93
2019-01-22 21:00:00 6.4 6 Sudoeste 26 Oeste 2.8 -- -- 95
2019-01-22 20:00:00 5.9 0 Calma 14 Sudeste 1.4 -- -- 98
2019-01-22 19:00:00 5.9 0 Calma 7 Sudoeste 3.6 -- -- 98
2019-01-22 18:00:00 6.4 4 Sudoeste 19 Norte 3.4 -- -- 95
2019-01-22 17:00:00 6.7 3 Sudoeste 28 Noroeste 1.6 -- -- 94
2019-01-22 16:00:00 7 3 Oeste 15 Sudoeste 1.6 -- -- 95
2019-01-22 15:00:00 6.7 8 Sudoeste 13 Sudoeste 3.6 -- -- 96
2019-01-22 14:00:00 6.5 3 Oeste 16 Noroeste 7.4 -- -- 96
2019-01-22 13:00:00 6.8 2 Noroeste 31 Oeste 5 -- -- 95
2019-01-22 12:00:00 7.1 9 Sudoeste 24 Oeste 2.2 -- -- 93
2019-01-22 11:00:00 5.6 3 Noroeste 6 Noroeste 0.6 -- -- 99
2019-01-22 10:00:00 5 0 Calma 4 Norte 0.6 -- -- 100
2019-01-22 09:00:00 4.4 0 Calma 3 Sudoeste 0.2 -- -- 99
2019-01-22 08:00:00 4.1 0 Calma 3 Nordeste 0 -- -- 99
2019-01-22 07:00:00 3.8 0 Calma 3 Nordeste 0 -- -- 99
2019-01-22 06:00:00 3.5 0 Calma 4 Sudeste 0 -- -- 99
2019-01-22 05:00:00 3.2 0 Calma 2 Sur 0 -- -- 98
2019-01-22 04:00:00 3.2 0 Calma 4 Este 0 -- -- 98
2019-01-22 03:00:00 4.3 0 Calma 2 Sudeste 0 -- -- 97
2019-01-22 02:00:00 5 0 Calma 3 Sudeste 0 -- -- 98
2019-01-22 01:00:00 5 0 Calma 2 Este 0 -- -- 97
2019-01-22 00:00:00 4.9 0 Calma 2 Oeste 0 -- -- 97
2019-01-21 23:00:00 4.9 0 Calma 3 Nordeste 0 -- -- 97
2019-01-21 22:00:00 4.7 0 Calma 3 Sudoeste 0 -- -- 97
2019-01-21 21:00:00 4.6 0 Calma 2 Este 0 -- -- 96
2019-01-21 20:00:00 4.8 0 Calma 3 Sur 0 -- -- 95
2019-01-21 19:00:00 5.6 0 Calma 4 Sudeste 0 -- -- 92
2019-01-21 18:00:00 6.4 0 Calma 11 Noroeste 0 -- -- 88
2019-01-21 17:00:00 7.2 2 Noroeste 10 Este 0 -- -- 86
2019-01-21 16:00:00 7.5 5 Norte 13 Nordeste 0 -- -- 84
2019-01-21 15:00:00 7.8 4 Norte 10 Noroeste 0 -- -- 86
2019-01-21 14:00:00 7.3 0 Calma 6 Noroeste 0 -- -- 89
2019-01-21 13:00:00 7.2 2 Noroeste 8 Norte 0 -- -- 93
2019-01-21 12:00:00 6.7 2 Oeste 5 Sudoeste 0 -- -- 94
2019-01-21 11:00:00 6.4 0 Calma 4 Sudeste 0 -- -- 99
2019-01-21 10:00:00 6 2 Norte 12 Norte 2 -- -- 100
2019-01-21 09:00:00 5.2 0 Calma 3 Sudeste 0.2 -- -- 99
2019-01-21 08:00:00 5.5 0 Calma 4 Este 0 -- -- 99
2019-01-21 07:00:00 5.7 2 Norte 4 Norte 0.2 -- -- 99
2019-01-21 06:00:00 5.6 0 Calma 3 Nordeste 0 -- -- 99
2019-01-21 05:00:00 5.4 0 Calma 2 Sudeste 0 -- -- 99
2019-01-21 04:00:00 5.8 0 Calma 5 Sudeste 0 -- -- 99
2019-01-21 03:00:00 5.9 0 Calma 4 Sur 0.8 -- -- 98
2019-01-21 02:00:00 6.3 0 Calma 8 Nordeste 0.8 -- -- 98
2019-01-21 01:00:00 6.3 3 Norte 6 Nordeste 1.6 -- -- 97
2019-01-21 00:00:00 6.8 6 Este 19 Este 1.2 -- -- 97
2019-01-20 23:00:00 7.2 2 Sudeste 4 Este 0.6 -- -- 98
2019-01-20 22:00:00 7.2 0 Calma 6 Nordeste 0.4 -- -- 97
2019-01-20 21:00:00 7.6 0 Calma 9 Sudoeste 1.6 -- -- 95
2019-01-20 20:00:00 7.5 3 Sudeste 8 Este 1.2 -- -- 96
2019-01-20 19:00:00 7.8 0 Calma 8 Noroeste 0 -- -- 92
2019-01-20 18:00:00 9.3 6 Noroeste 21 Oeste 0.8 -- -- 86
2019-01-20 17:00:00 10.4 8 Noroeste 25 Noroeste 0 -- -- 79
2019-01-20 16:00:00 10 5 Oeste 39 Oeste 0.2 -- -- 85
2019-01-20 15:00:00 11.4 8 Noroeste 30 Noroeste 0 -- -- 76
2019-01-20 14:00:00 10.6 8 Norte 22 Norte 0 -- -- 78
2019-01-20 13:00:00 9.4 3 Oeste 18 Este 1.6 -- -- 88
2019-01-20 12:00:00 9.2 7 Noroeste 24 Oeste 0.2 -- -- 88
2019-01-20 11:00:00 8.5 10 Oeste 25 Oeste 0.2 -- -- 89
2019-01-20 10:00:00 6.8 0 Calma 6 Sur 0.6 -- -- 98
2019-01-20 09:00:00 6.5 0 Calma 4 Nordeste 1 -- -- 98
2019-01-20 08:00:00 6.6 0 Calma 3 Sudeste 1.2 -- -- 97
2019-01-20 07:00:00 6.5 0 Calma 3 Sudeste 0 -- -- 97
2019-01-20 06:00:00 6.7 0 Calma 4 Sur 0 -- -- 96
2019-01-20 05:00:00 6.9 0 Calma 3 Sur 0 -- -- 96
2019-01-20 04:00:00 7.1 0 Calma 4 Este 0.2 -- -- 95
2019-01-20 03:00:00 7.3 0 Calma 3 Sudeste 0.2 -- -- 93
2019-01-20 02:00:00 7.6 0 Calma 3 Sudeste 0 -- -- 89
2019-01-20 01:00:00 8.2 0 Calma 7 Sur 0 -- -- 84
2019-01-20 00:00:00 9.1 2 Este 26 Sur 0 -- -- 75
2019-01-19 23:00:00 9.6 5 Sudoeste 23 Sudoeste 0 -- -- 71
2019-01-19 22:00:00 9.7 8 Sur 23 Sudeste 0 -- -- 72
2019-01-19 21:00:00 10.2 5 Sur 30 Sudeste 0 -- -- 67
2019-01-19 20:00:00 10.4 9 Sur 27 Sudoeste 0 -- -- 66
2019-01-19 19:00:00 10.3 9 Sur 27 Sur 0 -- -- 66
2019-01-19 18:00:00 10.2 7 Sudeste 29 Este 0 -- -- 69
2019-01-19 17:00:00 10.2 5 Sudeste 18 Sudeste 0 -- -- 69
2019-01-19 16:00:00 10.5 8 Sudeste 25 Sudeste 0 -- -- 69
2019-01-19 15:00:00 10.5 3 Sudeste 18 Sudeste 0 -- -- 70
2019-01-19 14:00:00 10.7 4 Sudoeste 19 Sur 0 -- -- 71
2019-01-19 13:00:00 10.6 6 Sudeste 19 Sur 0 -- -- 69
2019-01-19 12:00:00 9.5 6 Sur 14 Sur 0 -- -- 77
2019-01-19 11:00:00 7.5 3 Norte 6 Norte 0 -- -- 100
2019-01-19 10:00:00 6.3 0 Calma 4 Sudeste 0 -- -- 100
2019-01-19 09:00:00 5.6 0 Calma 2 Este 0 -- -- 100
2019-01-19 08:00:00 5.5 0 Calma 4 Nordeste 0.4 -- -- 100
2019-01-19 07:00:00 5.2 0 Calma 4 Sur 0 -- -- 100
2019-01-19 06:00:00 5.1 0 Calma 5 Sur 0.2 -- -- 100
2019-01-19 05:00:00 5.3 0 Calma 5 Norte 0.6 -- -- 100
2019-01-19 04:00:00 4.9 0 Calma 4 Sur 0 -- -- 100
2019-01-19 03:00:00 5.3 0 Calma 6 Noroeste 0.4 -- -- 100
2019-01-19 02:00:00 4.7 0 Calma 3 Sur 0.8 -- -- 100
2019-01-19 01:00:00 4.2 0 Calma 2 Nordeste 0 -- -- 100
2019-01-19 00:00:00 3.9 0 Calma 3 Este 0 -- -- 99